sensor_id;sensor_type;location;lat;lon;timestamp;P1;durP1;ratioP1;P2;durP2;ratioP2
57217;SDS011;43078;52.972;6.482;2023-04-06T00:02:18;8.23;;;4.68;;
57217;SDS011;43078;52.972;6.482;2023-04-06T00:04:48;9.13;;;4.57;;
57217;SDS011;43078;52.972;6.482;2023-04-06T00:07:15;8.35;;;4.38;;
57217;SDS011;43078;52.972;6.482;2023-04-06T00:09:41;9.68;;;4.70;;
57217;SDS011;43078;52.972;6.482;2023-04-06T00:12:08;10.57;;;4.32;;
57217;SDS011;43078;52.972;6.482;2023-04-06T00:14:37;8.45;;;4.45;;
57217;SDS011;43078;52.972;6.482;2023-04-06T00:17:06;7.90;;;4.60;;
57217;SDS011;43078;52.972;6.482;2023-04-06T00:19:33;6.63;;;4.43;;
57217;SDS011;43078;52.972;6.482;2023-04-06T00:22:03;8.38;;;4.22;;
57217;SDS011;43078;52.972;6.482;2023-04-06T00:24:30;7.05;;;4.40;;
57217;SDS011;43078;52.972;6.482;2023-04-06T00:26:58;8.07;;;4.78;;
57217;SDS011;43078;52.972;6.482;2023-04-06T00:29:27;6.68;;;4.53;;
57217;SDS011;43078;52.972;6.482;2023-04-06T00:31:59;7.13;;;4.55;;
57217;SDS011;43078;52.972;6.482;2023-04-06T00:34:28;7.90;;;4.80;;
57217;SDS011;43078;52.972;6.482;2023-04-06T00:36:57;7.18;;;4.40;;
57217;SDS011;43078;52.972;6.482;2023-04-06T00:39:29;7.93;;;4.63;;
57217;SDS011;43078;52.972;6.482;2023-04-06T00:42:07;7.38;;;4.63;;
57217;SDS011;43078;52.972;6.482;2023-04-06T00:44:58;7.72;;;5.10;;
57217;SDS011;43078;52.972;6.482;2023-04-06T00:47:26;6.78;;;4.13;;
57217;SDS011;43078;52.972;6.482;2023-04-06T00:50:08;7.47;;;4.55;;
57217;SDS011;43078;52.972;6.482;2023-04-06T00:52:47;6.18;;;4.07;;
57217;SDS011;43078;52.972;6.482;2023-04-06T00:55:47;9.00;;;5.00;;
57217;SDS011;43078;52.972;6.482;2023-04-06T00:58:16;7.75;;;4.60;;
57217;SDS011;43078;52.972;6.482;2023-04-06T01:00:42;7.80;;;4.15;;
57217;SDS011;43078;52.972;6.482;2023-04-06T01:03:08;7.45;;;4.43;;
57217;SDS011;43078;52.972;6.482;2023-04-06T01:05:40;7.20;;;4.35;;
57217;SDS011;43078;52.972;6.482;2023-04-06T01:08:07;9.60;;;4.85;;
57217;SDS011;43078;52.972;6.482;2023-04-06T01:10:52;7.78;;;4.50;;
57217;SDS011;43078;52.972;6.482;2023-04-06T01:13:18;7.60;;;4.43;;
57217;SDS011;43078;52.972;6.482;2023-04-06T01:15:44;9.88;;;4.95;;
57217;SDS011;43078;52.972;6.482;2023-04-06T01:18:11;9.25;;;4.78;;
57217;SDS011;43078;52.972;6.482;2023-04-06T01:20:37;7.47;;;4.60;;
57217;SDS011;43078;52.972;6.482;2023-04-06T01:23:03;7.70;;;4.90;;
57217;SDS011;43078;52.972;6.482;2023-04-06T01:25:29;6.93;;;4.78;;
57217;SDS011;43078;52.972;6.482;2023-04-06T01:27:55;7.97;;;4.53;;
57217;SDS011;43078;52.972;6.482;2023-04-06T01:30:21;7.70;;;4.88;;
57217;SDS011;43078;52.972;6.482;2023-04-06T01:32:46;7.57;;;4.72;;
57217;SDS011;43078;52.972;6.482;2023-04-06T01:35:12;6.88;;;4.65;;
57217;SDS011;43078;52.972;6.482;2023-04-06T01:37:38;7.43;;;4.53;;
57217;SDS011;43078;52.972;6.482;2023-04-06T01:40:04;9.07;;;5.10;;
57217;SDS011;43078;52.972;6.482;2023-04-06T01:42:30;8.25;;;4.68;;
57217;SDS011;43078;52.972;6.482;2023-04-06T01:44:56;7.30;;;4.60;;
57217;SDS011;43078;52.972;6.482;2023-04-06T01:47:22;7.20;;;4.72;;
57217;SDS011;43078;52.972;6.482;2023-04-06T01:49:47;7.85;;;4.53;;
57217;SDS011;43078;52.972;6.482;2023-04-06T01:52:16;6.68;;;4.35;;
57217;SDS011;43078;52.972;6.482;2023-04-06T01:54:49;8.23;;;4.88;;
57217;SDS011;43078;52.972;6.482;2023-04-06T01:57:17;8.98;;;4.82;;
57217;SDS011;43078;52.972;6.482;2023-04-06T01:59:50;8.27;;;4.65;;
57217;SDS011;43078;52.972;6.482;2023-04-06T02:02:29;7.82;;;4.45;;
57217;SDS011;43078;52.972;6.482;2023-04-06T02:04:55;7.63;;;5.28;;
57217;SDS011;43078;52.972;6.482;2023-04-06T02:07:25;7.68;;;4.78;;
57217;SDS011;43078;52.972;6.482;2023-04-06T02:09:54;8.30;;;5.15;;
57217;SDS011;43078;52.972;6.482;2023-04-06T02:12:20;7.78;;;5.00;;
57217;SDS011;43078;52.972;6.482;2023-04-06T02:14:55;8.38;;;5.07;;
57217;SDS011;43078;52.972;6.482;2023-04-06T02:17:43;9.20;;;5.30;;
57217;SDS011;43078;52.972;6.482;2023-04-06T02:20:12;8.45;;;4.70;;
57217;SDS011;43078;52.972;6.482;2023-04-06T02:22:58;10.10;;;5.15;;
57217;SDS011;43078;52.972;6.482;2023-04-06T02:25:49;8.00;;;4.90;;
57217;SDS011;43078;52.972;6.482;2023-04-06T02:28:20;8.27;;;4.50;;
57217;SDS011;43078;52.972;6.482;2023-04-06T02:30:56;7.35;;;4.80;;
57217;SDS011;43078;52.972;6.482;2023-04-06T02:33:26;7.53;;;4.70;;
57217;SDS011;43078;52.972;6.482;2023-04-06T02:36:00;9.90;;;5.40;;
57217;SDS011;43078;52.972;6.482;2023-04-06T02:38:25;7.75;;;4.95;;
57217;SDS011;43078;52.972;6.482;2023-04-06T02:40:51;8.15;;;5.35;;
57217;SDS011;43078;52.972;6.482;2023-04-06T02:43:18;7.88;;;5.05;;
57217;SDS011;43078;52.972;6.482;2023-04-06T02:45:44;7.15;;;4.57;;
57217;SDS011;43078;52.972;6.482;2023-04-06T02:48:19;7.53;;;4.85;;
57217;SDS011;43078;52.972;6.482;2023-04-06T02:50:45;8.85;;;5.38;;
57217;SDS011;43078;52.972;6.482;2023-04-06T02:55:41;7.18;;;4.63;;
57217;SDS011;43078;52.972;6.482;2023-04-06T02:58:08;8.38;;;4.93;;
57217;SDS011;43078;52.972;6.482;2023-04-06T03:00:40;6.90;;;4.88;;
57217;SDS011;43078;52.972;6.482;2023-04-06T03:05:49;8.20;;;5.18;;
57217;SDS011;43078;52.972;6.482;2023-04-06T03:08:18;7.35;;;5.40;;
57217;SDS011;43078;52.972;6.482;2023-04-06T03:10:44;7.47;;;4.90;;
57217;SDS011;43078;52.972;6.482;2023-04-06T03:13:36;9.07;;;5.07;;
57217;SDS011;43078;52.972;6.482;2023-04-06T03:16:16;7.07;;;4.53;;
57217;SDS011;43078;52.972;6.482;2023-04-06T03:18:43;8.43;;;5.22;;
57217;SDS011;43078;52.972;6.482;2023-04-06T03:21:14;8.95;;;4.97;;
57217;SDS011;43078;52.972;6.482;2023-04-06T03:23:44;8.13;;;5.60;;
57217;SDS011;43078;52.972;6.482;2023-04-06T03:26:10;6.80;;;4.50;;
57217;SDS011;43078;52.972;6.482;2023-04-06T03:28:35;10.60;;;5.93;;
57217;SDS011;43078;52.972;6.482;2023-04-06T03:31:01;7.32;;;5.05;;
57217;SDS011;43078;52.972;6.482;2023-04-06T03:33:29;7.47;;;5.05;;
57217;SDS011;43078;52.972;6.482;2023-04-06T03:35:55;7.97;;;5.35;;
57217;SDS011;43078;52.972;6.482;2023-04-06T03:38:21;10.73;;;5.50;;
57217;SDS011;43078;52.972;6.482;2023-04-06T03:40:47;8.38;;;5.70;;
57217;SDS011;43078;52.972;6.482;2023-04-06T03:43:13;8.30;;;5.18;;
57217;SDS011;43078;52.972;6.482;2023-04-06T03:45:43;7.40;;;5.30;;
57217;SDS011;43078;52.972;6.482;2023-04-06T03:48:19;8.70;;;5.47;;
57217;SDS011;43078;52.972;6.482;2023-04-06T03:50:46;8.30;;;5.38;;
57217;SDS011;43078;52.972;6.482;2023-04-06T03:53:13;8.35;;;5.03;;
57217;SDS011;43078;52.972;6.482;2023-04-06T03:55:48;9.82;;;5.60;;
57217;SDS011;43078;52.972;6.482;2023-04-06T03:58:17;7.22;;;5.15;;
57217;SDS011;43078;52.972;6.482;2023-04-06T04:00:46;7.70;;;5.05;;
57217;SDS011;43078;52.972;6.482;2023-04-06T04:03:23;10.82;;;5.35;;
57217;SDS011;43078;52.972;6.482;2023-04-06T04:05:51;9.30;;;6.00;;
57217;SDS011;43078;52.972;6.482;2023-04-06T04:08:21;8.45;;;5.80;;
57217;SDS011;43078;52.972;6.482;2023-04-06T04:10:47;8.25;;;5.22;;
57217;SDS011;43078;52.972;6.482;2023-04-06T04:13:16;7.60;;;5.22;;
57217;SDS011;43078;52.972;6.482;2023-04-06T04:15:43;9.75;;;5.97;;
57217;SDS011;43078;52.972;6.482;2023-04-06T04:18:09;8.80;;;5.70;;
57217;SDS011;43078;52.972;6.482;2023-04-06T04:20:36;8.75;;;5.82;;
57217;SDS011;43078;52.972;6.482;2023-04-06T04:23:04;9.35;;;5.57;;
57217;SDS011;43078;52.972;6.482;2023-04-06T04:25:31;8.50;;;5.88;;
57217;SDS011;43078;52.972;6.482;2023-04-06T04:27:57;7.28;;;5.32;;
57217;SDS011;43078;52.972;6.482;2023-04-06T04:30:26;8.55;;;5.80;;
57217;SDS011;43078;52.972;6.482;2023-04-06T04:33:27;10.93;;;6.15;;
57217;SDS011;43078;52.972;6.482;2023-04-06T04:35:57;8.75;;;6.13;;
57217;SDS011;43078;52.972;6.482;2023-04-06T04:38:28;11.82;;;5.53;;
57217;SDS011;43078;52.972;6.482;2023-04-06T04:40:54;11.15;;;5.63;;
57217;SDS011;43078;52.972;6.482;2023-04-06T04:43:23;8.05;;;5.45;;
57217;SDS011;43078;52.972;6.482;2023-04-06T04:45:51;8.10;;;5.40;;
57217;SDS011;43078;52.972;6.482;2023-04-06T04:48:18;8.45;;;5.20;;
57217;SDS011;43078;52.972;6.482;2023-04-06T04:50:47;8.07;;;5.75;;
57217;SDS011;43078;52.972;6.482;2023-04-06T04:53:17;8.48;;;5.40;;
57217;SDS011;43078;52.972;6.482;2023-04-06T04:55:43;7.72;;;5.65;;
57217;SDS011;43078;52.972;6.482;2023-04-06T04:58:09;9.30;;;5.82;;
57217;SDS011;43078;52.972;6.482;2023-04-06T05:00:39;9.05;;;5.78;;
57217;SDS011;43078;52.972;6.482;2023-04-06T05:03:06;8.15;;;5.35;;
57217;SDS011;43078;52.972;6.482;2023-04-06T05:05:32;8.85;;;5.50;;
57217;SDS011;43078;52.972;6.482;2023-04-06T05:07:58;8.73;;;5.97;;
57217;SDS011;43078;52.972;6.482;2023-04-06T05:10:25;9.88;;;5.72;;
57217;SDS011;43078;52.972;6.482;2023-04-06T05:13:07;10.60;;;5.85;;
57217;SDS011;43078;52.972;6.482;2023-04-06T05:15:33;8.43;;;6.03;;
57217;SDS011;43078;52.972;6.482;2023-04-06T05:18:08;9.52;;;5.80;;
57217;SDS011;43078;52.972;6.482;2023-04-06T05:20:51;8.70;;;6.13;;
57217;SDS011;43078;52.972;6.482;2023-04-06T05:23:24;9.10;;;5.68;;
57217;SDS011;43078;52.972;6.482;2023-04-06T05:25:50;9.73;;;6.07;;
57217;SDS011;43078;52.972;6.482;2023-04-06T05:28:17;8.88;;;6.28;;
57217;SDS011;43078;52.972;6.482;2023-04-06T05:30:44;7.78;;;5.95;;
57217;SDS011;43078;52.972;6.482;2023-04-06T05:33:11;9.05;;;6.28;;
57217;SDS011;43078;52.972;6.482;2023-04-06T05:35:36;10.05;;;6.55;;
57217;SDS011;43078;52.972;6.482;2023-04-06T05:38:02;8.75;;;6.22;;
57217;SDS011;43078;52.972;6.482;2023-04-06T05:40:31;9.02;;;6.32;;
57217;SDS011;43078;52.972;6.482;2023-04-06T05:42:56;10.80;;;6.50;;
57217;SDS011;43078;52.972;6.482;2023-04-06T05:45:22;10.02;;;6.35;;
57217;SDS011;43078;52.972;6.482;2023-04-06T05:47:48;9.13;;;6.18;;
57217;SDS011;43078;52.972;6.482;2023-04-06T05:50:14;9.05;;;6.47;;
57217;SDS011;43078;52.972;6.482;2023-04-06T05:52:49;9.25;;;6.18;;
57217;SDS011;43078;52.972;6.482;2023-04-06T05:55:18;9.38;;;6.97;;
57217;SDS011;43078;52.972;6.482;2023-04-06T05:57:44;9.85;;;6.50;;
57217;SDS011;43078;52.972;6.482;2023-04-06T06:00:10;11.98;;;6.80;;
57217;SDS011;43078;52.972;6.482;2023-04-06T06:02:36;11.15;;;6.53;;
57217;SDS011;43078;52.972;6.482;2023-04-06T06:05:02;9.45;;;6.32;;
57217;SDS011;43078;52.972;6.482;2023-04-06T06:07:29;10.35;;;6.82;;
57217;SDS011;43078;52.972;6.482;2023-04-06T06:09:58;9.10;;;6.75;;
57217;SDS011;43078;52.972;6.482;2023-04-06T06:12:24;9.13;;;6.95;;
57217;SDS011;43078;52.972;6.482;2023-04-06T06:14:49;8.63;;;6.45;;
57217;SDS011;43078;52.972;6.482;2023-04-06T06:17:15;10.18;;;6.60;;
57217;SDS011;43078;52.972;6.482;2023-04-06T06:19:41;9.90;;;6.35;;
57217;SDS011;43078;52.972;6.482;2023-04-06T06:22:06;10.75;;;6.88;;
57217;SDS011;43078;52.972;6.482;2023-04-06T06:24:32;8.85;;;6.38;;
57217;SDS011;43078;52.972;6.482;2023-04-06T06:26:58;10.50;;;6.50;;
57217;SDS011;43078;52.972;6.482;2023-04-06T06:29:24;9.85;;;6.57;;
57217;SDS011;43078;52.972;6.482;2023-04-06T06:31:49;11.70;;;6.88;;
57217;SDS011;43078;52.972;6.482;2023-04-06T06:34:15;9.63;;;7.15;;
57217;SDS011;43078;52.972;6.482;2023-04-06T06:36:40;11.95;;;7.60;;
57217;SDS011;43078;52.972;6.482;2023-04-06T06:39:06;11.80;;;7.85;;
57217;SDS011;43078;52.972;6.482;2023-04-06T06:41:32;16.48;;;8.23;;
57217;SDS011;43078;52.972;6.482;2023-04-06T06:43:58;10.55;;;7.38;;
57217;SDS011;43078;52.972;6.482;2023-04-06T06:46:28;10.77;;;7.57;;
57217;SDS011;43078;52.972;6.482;2023-04-06T06:48:55;10.43;;;7.28;;
57217;SDS011;43078;52.972;6.482;2023-04-06T06:51:29;11.70;;;8.15;;
57217;SDS011;43078;52.972;6.482;2023-04-06T06:53:57;10.50;;;7.43;;
57217;SDS011;43078;52.972;6.482;2023-04-06T06:56:44;14.88;;;8.60;;
57217;SDS011;43078;52.972;6.482;2023-04-06T06:59:14;11.50;;;7.90;;
57217;SDS011;43078;52.972;6.482;2023-04-06T07:01:41;12.52;;;7.45;;
57217;SDS011;43078;52.972;6.482;2023-04-06T07:04:06;11.05;;;7.50;;
57217;SDS011;43078;52.972;6.482;2023-04-06T07:06:35;12.60;;;7.68;;
57217;SDS011;43078;52.972;6.482;2023-04-06T07:09:04;12.65;;;8.23;;
57217;SDS011;43078;52.972;6.482;2023-04-06T07:11:39;12.43;;;7.97;;
57217;SDS011;43078;52.972;6.482;2023-04-06T07:14:41;11.63;;;7.72;;
57217;SDS011;43078;52.972;6.482;2023-04-06T07:17:13;10.95;;;7.97;;
57217;SDS011;43078;52.972;6.482;2023-04-06T07:19:44;12.77;;;8.48;;
57217;SDS011;43078;52.972;6.482;2023-04-06T07:22:14;12.02;;;8.20;;
57217;SDS011;43078;52.972;6.482;2023-04-06T07:24:42;11.25;;;8.13;;
57217;SDS011;43078;52.972;6.482;2023-04-06T07:27:07;13.40;;;8.85;;
57217;SDS011;43078;52.972;6.482;2023-04-06T07:29:33;12.98;;;8.70;;
57217;SDS011;43078;52.972;6.482;2023-04-06T07:31:59;16.45;;;9.02;;
57217;SDS011;43078;52.972;6.482;2023-04-06T07:34:25;14.02;;;8.95;;
57217;SDS011;43078;52.972;6.482;2023-04-06T07:36:50;14.60;;;8.85;;
57217;SDS011;43078;52.972;6.482;2023-04-06T07:39:20;13.45;;;9.20;;
57217;SDS011;43078;52.972;6.482;2023-04-06T07:41:54;12.05;;;8.25;;
57217;SDS011;43078;52.972;6.482;2023-04-06T07:45:07;12.77;;;8.80;;
57217;SDS011;43078;52.972;6.482;2023-04-06T07:47:41;14.18;;;7.80;;
57217;SDS011;43078;52.972;6.482;2023-04-06T07:50:10;13.38;;;8.73;;
57217;SDS011;43078;52.972;6.482;2023-04-06T07:52:38;14.25;;;8.45;;
57217;SDS011;43078;52.972;6.482;2023-04-06T07:55:07;14.30;;;9.20;;
57217;SDS011;43078;52.972;6.482;2023-04-06T07:57:33;12.98;;;9.18;;
57217;SDS011;43078;52.972;6.482;2023-04-06T07:59:58;12.25;;;8.70;;
57217;SDS011;43078;52.972;6.482;2023-04-06T08:02:24;13.23;;;9.77;;
57217;SDS011;43078;52.972;6.482;2023-04-06T08:04:50;15.13;;;9.10;;
57217;SDS011;43078;52.972;6.482;2023-04-06T08:07:16;13.77;;;8.88;;
57217;SDS011;43078;52.972;6.482;2023-04-06T08:09:42;13.48;;;8.90;;
57217;SDS011;43078;52.972;6.482;2023-04-06T08:12:08;13.30;;;9.75;;
57217;SDS011;43078;52.972;6.482;2023-04-06T08:14:33;14.48;;;9.18;;
57217;SDS011;43078;52.972;6.482;2023-04-06T08:16:59;14.07;;;8.57;;
57217;SDS011;43078;52.972;6.482;2023-04-06T08:19:25;11.40;;;9.40;;
57217;SDS011;43078;52.972;6.482;2023-04-06T08:21:51;14.75;;;10.05;;
57217;SDS011;43078;52.972;6.482;2023-04-06T08:24:17;14.90;;;8.80;;
57217;SDS011;43078;52.972;6.482;2023-04-06T08:26:42;11.68;;;8.57;;
57217;SDS011;43078;52.972;6.482;2023-04-06T08:29:08;14.25;;;8.75;;
57217;SDS011;43078;52.972;6.482;2023-04-06T08:31:34;12.20;;;8.45;;
57217;SDS011;43078;52.972;6.482;2023-04-06T08:34:01;11.52;;;8.13;;
57217;SDS011;43078;52.972;6.482;2023-04-06T08:36:37;13.30;;;8.52;;
57217;SDS011;43078;52.972;6.482;2023-04-06T08:39:03;13.55;;;9.32;;
57217;SDS011;43078;52.972;6.482;2023-04-06T08:41:29;12.35;;;8.55;;
57217;SDS011;43078;52.972;6.482;2023-04-06T08:43:59;15.35;;;9.30;;
57217;SDS011;43078;52.972;6.482;2023-04-06T08:46:25;16.17;;;10.02;;
57217;SDS011;43078;52.972;6.482;2023-04-06T08:48:57;14.02;;;9.32;;
57217;SDS011;43078;52.972;6.482;2023-04-06T08:51:29;13.68;;;9.52;;
57217;SDS011;43078;52.972;6.482;2023-04-06T08:53:56;15.23;;;10.57;;
57217;SDS011;43078;52.972;6.482;2023-04-06T08:56:26;16.02;;;8.73;;
57217;SDS011;43078;52.972;6.482;2023-04-06T08:58:56;14.18;;;8.80;;
57217;SDS011;43078;52.972;6.482;2023-04-06T09:01:27;17.67;;;8.98;;
57217;SDS011;43078;52.972;6.482;2023-04-06T09:03:55;14.13;;;8.93;;
57217;SDS011;43078;52.972;6.482;2023-04-06T09:06:30;14.48;;;9.55;;
57217;SDS011;43078;52.972;6.482;2023-04-06T09:08:56;14.82;;;9.48;;
57217;SDS011;43078;52.972;6.482;2023-04-06T09:11:23;12.05;;;8.57;;
57217;SDS011;43078;52.972;6.482;2023-04-06T09:13:51;15.10;;;9.05;;
57217;SDS011;43078;52.972;6.482;2023-04-06T09:16:18;13.95;;;9.10;;
57217;SDS011;43078;52.972;6.482;2023-04-06T09:18:45;17.13;;;9.80;;
57217;SDS011;43078;52.972;6.482;2023-04-06T09:21:17;14.02;;;9.88;;
57217;SDS011;43078;52.972;6.482;2023-04-06T09:24:00;14.93;;;10.93;;
57217;SDS011;43078;52.972;6.482;2023-04-06T09:26:43;16.70;;;10.15;;
57217;SDS011;43078;52.972;6.482;2023-04-06T09:29:21;17.15;;;11.50;;
57217;SDS011;43078;52.972;6.482;2023-04-06T09:31:47;16.42;;;12.55;;
57217;SDS011;43078;52.972;6.482;2023-04-06T09:34:20;18.50;;;11.77;;
57217;SDS011;43078;52.972;6.482;2023-04-06T09:36:49;19.15;;;11.32;;
57217;SDS011;43078;52.972;6.482;2023-04-06T09:39:32;20.70;;;11.30;;
57217;SDS011;43078;52.972;6.482;2023-04-06T09:41:58;18.00;;;11.30;;
57217;SDS011;43078;52.972;6.482;2023-04-06T09:44:25;15.95;;;11.35;;
57217;SDS011;43078;52.972;6.482;2023-04-06T09:46:53;19.45;;;11.35;;
57217;SDS011;43078;52.972;6.482;2023-04-06T09:49:20;18.55;;;12.43;;
57217;SDS011;43078;52.972;6.482;2023-04-06T09:51:54;18.52;;;11.93;;
57217;SDS011;43078;52.972;6.482;2023-04-06T09:54:35;20.52;;;13.30;;
57217;SDS011;43078;52.972;6.482;2023-04-06T09:57:24;19.42;;;11.98;;
57217;SDS011;43078;52.972;6.482;2023-04-06T10:00:06;21.38;;;12.95;;
57217;SDS011;43078;52.972;6.482;2023-04-06T10:07:56;20.65;;;12.90;;
57217;SDS011;43078;52.972;6.482;2023-04-06T10:10:25;17.58;;;12.55;;
57217;SDS011;43078;52.972;6.482;2023-04-06T10:12:55;22.48;;;14.00;;
57217;SDS011;43078;52.972;6.482;2023-04-06T10:15:21;21.15;;;12.13;;
57217;SDS011;43078;52.972;6.482;2023-04-06T10:17:49;20.83;;;14.10;;
57217;SDS011;43078;52.972;6.482;2023-04-06T10:20:23;20.77;;;14.13;;
57217;SDS011;43078;52.972;6.482;2023-04-06T10:25:31;19.35;;;14.55;;
57217;SDS011;43078;52.972;6.482;2023-04-06T10:28:10;22.20;;;14.13;;
57217;SDS011;43078;52.972;6.482;2023-04-06T10:30:41;18.35;;;13.20;;
57217;SDS011;43078;52.972;6.482;2023-04-06T10:33:14;19.98;;;14.02;;
57217;SDS011;43078;52.972;6.482;2023-04-06T10:35:53;18.83;;;14.15;;
57217;SDS011;43078;52.972;6.482;2023-04-06T10:38:34;18.40;;;13.98;;
57217;SDS011;43078;52.972;6.482;2023-04-06T10:41:05;19.42;;;14.35;;
57217;SDS011;43078;52.972;6.482;2023-04-06T10:46:02;20.88;;;14.52;;
57217;SDS011;43078;52.972;6.482;2023-04-06T10:48:42;19.98;;;15.25;;
57217;SDS011;43078;52.972;6.482;2023-04-06T10:51:11;21.83;;;15.45;;
57217;SDS011;43078;52.972;6.482;2023-04-06T10:53:38;24.75;;;17.92;;
57217;SDS011;43078;52.972;6.482;2023-04-06T10:56:09;26.65;;;18.40;;
57217;SDS011;43078;52.972;6.482;2023-04-06T10:58:36;24.92;;;17.52;;
57217;SDS011;43078;52.972;6.482;2023-04-06T11:01:02;24.52;;;17.75;;
57217;SDS011;43078;52.972;6.482;2023-04-06T11:03:29;25.20;;;18.63;;
57217;SDS011;43078;52.972;6.482;2023-04-06T11:05:55;28.27;;;18.75;;
57217;SDS011;43078;52.972;6.482;2023-04-06T11:08:31;30.20;;;19.60;;
57217;SDS011;43078;52.972;6.482;2023-04-06T11:11:08;28.30;;;20.27;;
57217;SDS011;43078;52.972;6.482;2023-04-06T11:16:23;26.52;;;19.55;;
57217;SDS011;43078;52.972;6.482;2023-04-06T11:18:54;24.33;;;18.52;;
57217;SDS011;43078;52.972;6.482;2023-04-06T11:21:39;27.33;;;20.15;;
57217;SDS011;43078;52.972;6.482;2023-04-06T11:26:42;25.38;;;19.15;;
57217;SDS011;43078;52.972;6.482;2023-04-06T11:29:13;30.50;;;20.38;;
57217;SDS011;43078;52.972;6.482;2023-04-06T11:31:47;28.77;;;20.15;;
57217;SDS011;43078;52.972;6.482;2023-04-06T11:34:18;28.20;;;20.25;;
57217;SDS011;43078;52.972;6.482;2023-04-06T11:36:49;30.00;;;20.13;;
57217;SDS011;43078;52.972;6.482;2023-04-06T11:39:31;29.92;;;20.63;;
57217;SDS011;43078;52.972;6.482;2023-04-06T11:42:01;28.23;;;20.95;;
57217;SDS011;43078;52.972;6.482;2023-04-06T11:44:37;28.33;;;21.50;;
57217;SDS011;43078;52.972;6.482;2023-04-06T11:47:05;30.88;;;20.55;;
57217;SDS011;43078;52.972;6.482;2023-04-06T11:49:33;27.42;;;20.90;;
57217;SDS011;43078;52.972;6.482;2023-04-06T11:52:01;28.52;;;20.00;;
57217;SDS011;43078;52.972;6.482;2023-04-06T11:54:31;26.05;;;20.00;;
57217;SDS011;43078;52.972;6.482;2023-04-06T11:57:04;28.35;;;19.55;;
57217;SDS011;43078;52.972;6.482;2023-04-06T11:59:33;28.38;;;19.67;;
57217;SDS011;43078;52.972;6.482;2023-04-06T12:01:59;28.27;;;20.33;;
57217;SDS011;43078;52.972;6.482;2023-04-06T12:04:26;27.65;;;20.13;;
57217;SDS011;43078;52.972;6.482;2023-04-06T12:06:51;28.73;;;21.77;;
57217;SDS011;43078;52.972;6.482;2023-04-06T12:09:17;25.60;;;20.23;;
57217;SDS011;43078;52.972;6.482;2023-04-06T12:11:43;26.70;;;21.55;;
57217;SDS011;43078;52.972;6.482;2023-04-06T12:14:09;27.45;;;19.88;;
57217;SDS011;43078;52.972;6.482;2023-04-06T12:16:35;30.15;;;21.20;;
57217;SDS011;43078;52.972;6.482;2023-04-06T12:19:01;26.33;;;19.90;;
57217;SDS011;43078;52.972;6.482;2023-04-06T12:21:28;27.67;;;20.88;;
57217;SDS011;43078;52.972;6.482;2023-04-06T12:23:55;25.08;;;20.65;;
57217;SDS011;43078;52.972;6.482;2023-04-06T12:26:21;28.08;;;20.73;;
57217;SDS011;43078;52.972;6.482;2023-04-06T12:28:47;26.40;;;19.67;;
57217;SDS011;43078;52.972;6.482;2023-04-06T12:31:20;25.73;;;19.80;;
57217;SDS011;43078;52.972;6.482;2023-04-06T12:33:46;26.95;;;20.05;;
57217;SDS011;43078;52.972;6.482;2023-04-06T12:36:13;27.50;;;20.83;;
57217;SDS011;43078;52.972;6.482;2023-04-06T12:38:40;27.05;;;19.80;;
57217;SDS011;43078;52.972;6.482;2023-04-06T12:41:07;26.25;;;19.95;;
57217;SDS011;43078;52.972;6.482;2023-04-06T12:43:34;25.40;;;18.90;;
57217;SDS011;43078;52.972;6.482;2023-04-06T12:46:00;26.05;;;19.08;;
57217;SDS011;43078;52.972;6.482;2023-04-06T12:48:25;27.35;;;18.80;;
57217;SDS011;43078;52.972;6.482;2023-04-06T12:50:58;25.67;;;18.88;;
57217;SDS011;43078;52.972;6.482;2023-04-06T12:53:25;27.15;;;19.90;;
57217;SDS011;43078;52.972;6.482;2023-04-06T12:55:54;29.52;;;19.55;;
57217;SDS011;43078;52.972;6.482;2023-04-06T12:58:20;23.77;;;16.63;;
57217;SDS011;43078;52.972;6.482;2023-04-06T13:00:47;21.60;;;17.10;;
57217;SDS011;43078;52.972;6.482;2023-04-06T13:03:13;22.73;;;16.88;;
57217;SDS011;43078;52.972;6.482;2023-04-06T13:05:46;24.95;;;18.02;;
57217;SDS011;43078;52.972;6.482;2023-04-06T13:08:12;24.80;;;17.67;;
57217;SDS011;43078;52.972;6.482;2023-04-06T13:10:49;22.95;;;17.88;;
57217;SDS011;43078;52.972;6.482;2023-04-06T13:13:17;24.33;;;17.77;;
57217;SDS011;43078;52.972;6.482;2023-04-06T13:15:46;24.33;;;15.40;;
57217;SDS011;43078;52.972;6.482;2023-04-06T13:18:11;22.88;;;15.07;;
57217;SDS011;43078;52.972;6.482;2023-04-06T13:20:37;22.35;;;15.18;;
57217;SDS011;43078;52.972;6.482;2023-04-06T13:23:02;22.98;;;15.88;;
57217;SDS011;43078;52.972;6.482;2023-04-06T13:25:28;22.48;;;16.70;;
57217;SDS011;43078;52.972;6.482;2023-04-06T13:27:55;21.48;;;15.88;;
57217;SDS011;43078;52.972;6.482;2023-04-06T13:30:20;23.40;;;15.77;;
57217;SDS011;43078;52.972;6.482;2023-04-06T13:32:46;23.67;;;16.20;;
57217;SDS011;43078;52.972;6.482;2023-04-06T13:35:12;20.83;;;15.63;;
57217;SDS011;43078;52.972;6.482;2023-04-06T13:37:37;22.13;;;15.27;;
57217;SDS011;43078;52.972;6.482;2023-04-06T13:40:03;22.77;;;14.13;;
57217;SDS011;43078;52.972;6.482;2023-04-06T13:42:30;21.25;;;16.27;;
57217;SDS011;43078;52.972;6.482;2023-04-06T13:44:56;21.70;;;14.63;;
57217;SDS011;43078;52.972;6.482;2023-04-06T13:47:22;18.58;;;14.20;;
57217;SDS011;43078;52.972;6.482;2023-04-06T13:49:49;17.15;;;12.85;;
57217;SDS011;43078;52.972;6.482;2023-04-06T13:52:16;19.98;;;14.10;;
57217;SDS011;43078;52.972;6.482;2023-04-06T13:54:42;17.08;;;12.32;;
57217;SDS011;43078;52.972;6.482;2023-04-06T13:57:08;20.38;;;14.50;;
57217;SDS011;43078;52.972;6.482;2023-04-06T13:59:34;20.05;;;14.10;;
57217;SDS011;43078;52.972;6.482;2023-04-06T14:02:00;17.88;;;13.15;;
57217;SDS011;43078;52.972;6.482;2023-04-06T14:04:26;19.67;;;14.27;;
57217;SDS011;43078;52.972;6.482;2023-04-06T14:06:52;17.60;;;11.43;;
57217;SDS011;43078;52.972;6.482;2023-04-06T14:09:18;14.00;;;11.20;;
57217;SDS011;43078;52.972;6.482;2023-04-06T14:11:43;17.45;;;12.82;;
57217;SDS011;43078;52.972;6.482;2023-04-06T14:14:09;14.85;;;11.40;;
57217;SDS011;43078;52.972;6.482;2023-04-06T14:16:34;16.88;;;11.93;;
57217;SDS011;43078;52.972;6.482;2023-04-06T14:19:00;14.43;;;9.93;;
57217;SDS011;43078;52.972;6.482;2023-04-06T14:21:26;16.15;;;11.50;;
57217;SDS011;43078;52.972;6.482;2023-04-06T14:23:52;14.82;;;10.68;;
57217;SDS011;43078;52.972;6.482;2023-04-06T14:26:17;15.48;;;10.65;;
57217;SDS011;43078;52.972;6.482;2023-04-06T14:28:44;14.63;;;11.25;;
57217;SDS011;43078;52.972;6.482;2023-04-06T14:31:14;16.27;;;12.02;;
57217;SDS011;43078;52.972;6.482;2023-04-06T14:33:41;16.88;;;12.18;;
57217;SDS011;43078;52.972;6.482;2023-04-06T14:36:07;18.73;;;12.55;;
57217;SDS011;43078;52.972;6.482;2023-04-06T14:38:35;16.90;;;12.55;;
57217;SDS011;43078;52.972;6.482;2023-04-06T14:41:15;15.13;;;11.48;;
57217;SDS011;43078;52.972;6.482;2023-04-06T14:43:45;16.70;;;12.00;;
57217;SDS011;43078;52.972;6.482;2023-04-06T14:46:12;17.60;;;13.00;;
57217;SDS011;43078;52.972;6.482;2023-04-06T14:48:38;17.20;;;12.60;;
57217;SDS011;43078;52.972;6.482;2023-04-06T14:51:03;18.02;;;13.50;;
57217;SDS011;43078;52.972;6.482;2023-04-06T14:53:29;16.75;;;12.88;;
57217;SDS011;43078;52.972;6.482;2023-04-06T14:55:56;16.00;;;12.98;;
57217;SDS011;43078;52.972;6.482;2023-04-06T14:58:22;18.50;;;12.20;;
57217;SDS011;43078;52.972;6.482;2023-04-06T15:00:48;16.10;;;12.25;;
57217;SDS011;43078;52.972;6.482;2023-04-06T15:03:19;17.25;;;12.52;;
57217;SDS011;43078;52.972;6.482;2023-04-06T15:05:45;16.50;;;12.07;;
57217;SDS011;43078;52.972;6.482;2023-04-06T15:08:11;17.40;;;13.40;;